Portada
METAR-TAF:

METAR-TAF

Aeroports :

Denpasar, Indonèsia

latitud: 08-44-53S, longitud: 115-10-03E, altitud: 4 m

Observació

L'informe es va fer fa 30 minuts, a les 15:30 UTC
Vent 3 kt del Nord/Nord-Est
Temperatura 26°C
Humitat 100%
Pressió 1012 hPa
Visibilitat 10 km o més
Escasses núvols a una alçada de 1600 ft

METAR: WADD 271530Z 02003KT 9999 FEW016 26/26 Q1012 NOSIG

Hora: 23:00 (16:00 UTC)

Pronòstic

L'informe es va fer fa 5 hores i 0 minuts, a les 11:00 UTC
Pronòstic vàlid del 27 a les 12 UTC al 28 a les 12 UTC
Vent 5 kt amb direcció variable
Visibilitat 10 km o més
Cel ennuvolat a una alçada de 1500 ft
Temporalment
l' 27 a les 12 UTC al 27 a les 16 UTC
Visibilitat: 4000 m
pluja
Temporalment
l' 27 a les 19 UTC al 27 a les 23 UTC
Visibilitat: 4000 m
Escasses núvols a una alçada de 1500 ft, Cumulonimbus.
tempesta, pluja

TAF: WADD 271100Z 2712/2812 VRB05KT 9999 BKN015 TEMPO 2712/2716 4000 RA TEMPO 2719/2723 4000 TSRA FEW015CB

Observacions i pronòstics meteorològics de més de 4000 aeroports (METAR i TAF).

Les estacions disponibles són els punts grocs i vermells al mapa.

Posi el ratolí al punt desitjat per veure el nom de l'estació.

Feu clic per veure les observacions i els pronòstics meteorològics.

Per canviar el mapa: feu clic els botons verds amb una creu de color negre per apropar; al botó verd amb un guió per allunyar la imatge; o en les fletxes verdes per a mapes adjacents.


METAR-TAF: